sensor_id;sensor_type;location;lat;lon;timestamp;pressure;altitude;pressure_sealevel;temperature;humidity
76586;BME280;65251;51.022;13.736;2023-04-03T00:00:05;100390.34;;;3.95;57.93
76586;BME280;65251;51.022;13.736;2023-04-03T00:00:36;100382.56;;;3.94;58.13
76586;BME280;65251;51.022;13.736;2023-04-03T00:01:07;100388.66;;;3.94;57.63
76586;BME280;65251;51.022;13.736;2023-04-03T00:01:38;100385.19;;;3.94;58.39
76586;BME280;65251;51.022;13.736;2023-04-03T00:02:09;100388.81;;;3.93;58.77
76586;BME280;65251;51.022;13.736;2023-04-03T00:02:40;100384.50;;;3.92;58.40
76586;BME280;65251;51.022;13.736;2023-04-03T00:03:11;100371.84;;;3.86;58.02
76586;BME280;65251;51.022;13.736;2023-04-03T00:03:43;100385.47;;;3.91;58.38
76586;BME280;65251;51.022;13.736;2023-04-03T00:04:14;100385.72;;;3.88;58.72
76586;BME280;65251;51.022;13.736;2023-04-03T00:04:44;100391.00;;;3.88;58.37
76586;BME280;65251;51.022;13.736;2023-04-03T00:05:16;100385.72;;;3.88;58.34
76586;BME280;65251;51.022;13.736;2023-04-03T00:05:48;100379.50;;;3.89;58.11
76586;BME280;65251;51.022;13.736;2023-04-03T00:06:19;100381.16;;;3.90;58.50
76586;BME280;65251;51.022;13.736;2023-04-03T00:06:50;100381.28;;;3.88;58.39
76586;BME280;65251;51.022;13.736;2023-04-03T00:07:22;100387.66;;;3.86;58.27
76586;BME280;65251;51.022;13.736;2023-04-03T00:07:52;100387.66;;;3.86;58.37
76586;BME280;65251;51.022;13.736;2023-04-03T00:08:25;100385.03;;;3.86;58.11
76586;BME280;65251;51.022;13.736;2023-04-03T00:08:56;100383.09;;;3.88;58.37
76586;BME280;65251;51.022;13.736;2023-04-03T00:09:27;100389.34;;;3.87;57.85
76586;BME280;65251;51.022;13.736;2023-04-03T00:09:58;100391.00;;;3.88;57.89
76586;BME280;65251;51.022;13.736;2023-04-03T00:10:29;100386.00;;;3.85;58.23
76586;BME280;65251;51.022;13.736;2023-04-03T00:11:01;100379.88;;;3.84;57.96
76586;BME280;65251;51.022;13.736;2023-04-03T00:11:33;100382.25;;;3.77;58.01
76586;BME280;65251;51.022;13.736;2023-04-03T00:12:04;100380.00;;;3.73;58.37
76586;BME280;65251;51.022;13.736;2023-04-03T00:12:35;100383.34;;;3.75;58.32
76586;BME280;65251;51.022;13.736;2023-04-03T00:13:07;100387.78;;;3.74;58.11
76586;BME280;65251;51.022;13.736;2023-04-03T00:13:39;100391.13;;;3.76;57.80
76586;BME280;65251;51.022;13.736;2023-04-03T00:14:10;100386.94;;;3.74;57.76
76586;BME280;65251;51.022;13.736;2023-04-03T00:14:41;100387.34;;;3.69;58.47
76586;BME280;65251;51.022;13.736;2023-04-03T00:15:13;100388.31;;;3.68;58.47
76586;BME280;65251;51.022;13.736;2023-04-03T00:15:44;100385.53;;;3.70;57.98
76586;BME280;65251;51.022;13.736;2023-04-03T00:16:15;100392.75;;;3.68;58.22
76586;BME280;65251;51.022;13.736;2023-04-03T00:16:46;100384.84;;;3.68;58.37
76586;BME280;65251;51.022;13.736;2023-04-03T00:17:17;100397.03;;;3.69;58.50
76586;BME280;65251;51.022;13.736;2023-04-03T00:17:48;100391.66;;;3.70;58.39
76586;BME280;65251;51.022;13.736;2023-04-03T00:18:19;100388.03;;;3.71;58.36
76586;BME280;65251;51.022;13.736;2023-04-03T00:18:51;100392.34;;;3.72;57.85
76586;BME280;65251;51.022;13.736;2023-04-03T00:19:22;100399.56;;;3.70;58.16
76586;BME280;65251;51.022;13.736;2023-04-03T00:19:53;100397.19;;;3.67;58.21
76586;BME280;65251;51.022;13.736;2023-04-03T00:20:25;100396.72;;;3.62;58.67
76586;BME280;65251;51.022;13.736;2023-04-03T00:20:56;100394.09;;;3.62;58.63
76586;BME280;65251;51.022;13.736;2023-04-03T00:21:27;100393.97;;;3.64;58.52
76586;BME280;65251;51.022;13.736;2023-04-03T00:21:58;100403.16;;;3.69;58.29
76586;BME280;65251;51.022;13.736;2023-04-03T00:22:29;100396.78;;;3.72;58.58
76586;BME280;65251;51.022;13.736;2023-04-03T00:23:01;100400.81;;;3.76;58.68
76586;BME280;65251;51.022;13.736;2023-04-03T00:23:34;100398.75;;;3.79;58.27
76586;BME280;65251;51.022;13.736;2023-04-03T00:24:05;100393.63;;;3.78;58.60
76586;BME280;65251;51.022;13.736;2023-04-03T00:24:36;100395.00;;;3.82;58.59
76586;BME280;65251;51.022;13.736;2023-04-03T00:25:08;100400.28;;;3.82;58.36
76586;BME280;65251;51.022;13.736;2023-04-03T00:25:40;100396.66;;;3.83;58.65
76586;BME280;65251;51.022;13.736;2023-04-03T00:26:11;100406.13;;;3.86;58.81
76586;BME280;65251;51.022;13.736;2023-04-03T00:26:41;100402.38;;;3.88;58.53
76586;BME280;65251;51.022;13.736;2023-04-03T00:27:13;100401.53;;;3.88;59.01
76586;BME280;65251;51.022;13.736;2023-04-03T00:27:44;100403.09;;;3.90;58.98
76586;BME280;65251;51.022;13.736;2023-04-03T00:28:15;100406.56;;;3.91;59.08
76586;BME280;65251;51.022;13.736;2023-04-03T00:28:46;100399.47;;;3.91;58.91
76586;BME280;65251;51.022;13.736;2023-04-03T00:29:17;100398.78;;;3.89;58.78
76586;BME280;65251;51.022;13.736;2023-04-03T00:29:48;100401.69;;;3.86;59.00
76586;BME280;65251;51.022;13.736;2023-04-03T00:30:21;100411.25;;;3.87;58.89
76586;BME280;65251;51.022;13.736;2023-04-03T00:30:52;100405.84;;;3.89;59.00
76586;BME280;65251;51.022;13.736;2023-04-03T00:31:23;100409.47;;;3.88;59.24
76586;BME280;65251;51.022;13.736;2023-04-03T00:31:54;100405.84;;;3.89;59.04
76586;BME280;65251;51.022;13.736;2023-04-03T00:32:26;100401.41;;;3.89;59.47
76586;BME280;65251;51.022;13.736;2023-04-03T00:32:56;100413.63;;;3.90;59.13
76586;BME280;65251;51.022;13.736;2023-04-03T00:33:27;100407.53;;;3.90;58.82
76586;BME280;65251;51.022;13.736;2023-04-03T00:33:59;100411.81;;;3.91;58.80
76586;BME280;65251;51.022;13.736;2023-04-03T00:34:30;100415.44;;;3.90;59.11
76586;BME280;65251;51.022;13.736;2023-04-03T00:35:01;100405.84;;;3.89;59.03
76586;BME280;65251;51.022;13.736;2023-04-03T00:35:34;100420.69;;;3.90;58.42
76586;BME280;65251;51.022;13.736;2023-04-03T00:36:06;100407.66;;;3.88;58.64
76586;BME280;65251;51.022;13.736;2023-04-03T00:36:37;100415.31;;;3.91;58.81
76586;BME280;65251;51.022;13.736;2023-04-03T00:37:09;100415.44;;;3.90;58.39
76586;BME280;65251;51.022;13.736;2023-04-03T00:37:39;100415.31;;;3.91;58.51
76586;BME280;65251;51.022;13.736;2023-04-03T00:38:10;100408.22;;;3.92;58.22
76586;BME280;65251;51.022;13.736;2023-04-03T00:38:43;100410.88;;;3.92;58.46
76586;BME280;65251;51.022;13.736;2023-04-03T00:39:14;100406.41;;;3.92;58.00
76586;BME280;65251;51.022;13.736;2023-04-03T00:39:44;100415.31;;;3.91;57.79
76586;BME280;65251;51.022;13.736;2023-04-03T00:40:15;100408.34;;;3.90;58.03
76586;BME280;65251;51.022;13.736;2023-04-03T00:40:48;100401.28;;;3.91;58.05
76586;BME280;65251;51.022;13.736;2023-04-03T00:41:20;100407.78;;;3.87;57.75
76586;BME280;65251;51.022;13.736;2023-04-03T00:41:51;100411.25;;;3.87;57.11
76586;BME280;65251;51.022;13.736;2023-04-03T00:42:23;100417.50;;;3.86;57.25
76586;BME280;65251;51.022;13.736;2023-04-03T00:42:57;100408.19;;;3.82;57.77
76586;BME280;65251;51.022;13.736;2023-04-03T00:43:28;100407.22;;;3.83;57.90
76586;BME280;65251;51.022;13.736;2023-04-03T00:44:00;100409.59;;;3.86;58.54
76586;BME280;65251;51.022;13.736;2023-04-03T00:45:41;100411.66;;;3.83;58.30
76586;BME280;65251;51.022;13.736;2023-04-03T00:46:13;100406.38;;;3.83;58.11
76586;BME280;65251;51.022;13.736;2023-04-03T00:46:44;100409.72;;;3.85;58.30
76586;BME280;65251;51.022;13.736;2023-04-03T00:47:17;100406.25;;;3.84;59.12
76586;BME280;65251;51.022;13.736;2023-04-03T00:47:48;100405.84;;;3.79;59.05
76586;BME280;65251;51.022;13.736;2023-04-03T00:48:24;100405.84;;;3.79;58.76
76586;BME280;65251;51.022;13.736;2023-04-03T00:48:57;100402.38;;;3.78;58.58
76586;BME280;65251;51.022;13.736;2023-04-03T00:49:28;100417.34;;;3.78;59.09
76586;BME280;65251;51.022;13.736;2023-04-03T00:49:59;100405.25;;;3.75;58.69
76586;BME280;65251;51.022;13.736;2023-04-03T00:50:30;100414.00;;;3.76;58.88
76586;BME280;65251;51.022;13.736;2023-04-03T00:51:02;100410.09;;;3.70;58.64
76586;BME280;65251;51.022;13.736;2023-04-03T00:51:35;100407.31;;;3.72;58.71
76586;BME280;65251;51.022;13.736;2023-04-03T00:52:11;100405.66;;;3.71;58.61
76586;BME280;65251;51.022;13.736;2023-04-03T00:52:46;100415.22;;;3.72;58.51
76586;BME280;65251;51.022;13.736;2023-04-03T00:53:24;100413.44;;;3.72;58.97
76586;BME280;65251;51.022;13.736;2023-04-03T00:54:02;100409.00;;;3.73;58.53
76586;BME280;65251;51.022;13.736;2023-04-03T00:54:37;100402.75;;;3.74;58.53
76586;BME280;65251;51.022;13.736;2023-04-03T00:55:09;100409.97;;;3.72;58.33
76586;BME280;65251;51.022;13.736;2023-04-03T00:55:41;100404.69;;;3.72;58.41
76586;BME280;65251;51.022;13.736;2023-04-03T00:56:16;100405.66;;;3.71;58.71
76586;BME280;65251;51.022;13.736;2023-04-03T00:56:51;100405.78;;;3.69;58.74
76586;BME280;65251;51.022;13.736;2023-04-03T00:57:22;100404.94;;;3.69;58.96
76586;BME280;65251;51.022;13.736;2023-04-03T00:57:55;100409.25;;;3.70;59.08
76586;BME280;65251;51.022;13.736;2023-04-03T00:58:33;100411.31;;;3.66;58.81
76586;BME280;65251;51.022;13.736;2023-04-03T00:59:10;100407.84;;;3.66;59.16
76586;BME280;65251;51.022;13.736;2023-04-03T00:59:45;100413.81;;;3.68;59.18
76586;BME280;65251;51.022;13.736;2023-04-03T01:00:19;100412.28;;;3.65;58.93
76586;BME280;65251;51.022;13.736;2023-04-03T01:00:57;100407.97;;;3.64;58.61
76586;BME280;65251;51.022;13.736;2023-04-03T01:01:29;100407.28;;;3.62;58.08
76586;BME280;65251;51.022;13.736;2023-04-03T01:02:01;100415.88;;;3.64;58.71
76586;BME280;65251;51.022;13.736;2023-04-03T01:02:32;100407.28;;;3.62;58.64
76586;BME280;65251;51.022;13.736;2023-04-03T01:03:02;100411.69;;;3.62;58.38
76586;BME280;65251;51.022;13.736;2023-04-03T01:03:35;100407.69;;;3.58;58.50
76586;BME280;65251;51.022;13.736;2023-04-03T01:04:24;100411.53;;;3.54;58.91
76586;BME280;65251;51.022;13.736;2023-04-03T01:04:57;100415.16;;;3.53;59.08
76586;BME280;65251;51.022;13.736;2023-04-03T01:05:29;100412.38;;;3.54;58.85
76586;BME280;65251;51.022;13.736;2023-04-03T01:06:00;100406.97;;;3.56;58.65
76586;BME280;65251;51.022;13.736;2023-04-03T01:06:34;100409.50;;;3.57;58.89
76586;BME280;65251;51.022;13.736;2023-04-03T01:07:11;100404.47;;;3.54;58.57
76586;BME280;65251;51.022;13.736;2023-04-03T01:07:43;100413.78;;;3.58;58.93
76586;BME280;65251;51.022;13.736;2023-04-03T01:08:15;100407.94;;;3.55;58.79
76586;BME280;65251;51.022;13.736;2023-04-03T01:08:49;100416.69;;;3.55;59.11
76586;BME280;65251;51.022;13.736;2023-04-03T01:09:21;100416.69;;;3.55;58.55
76586;BME280;65251;51.022;13.736;2023-04-03T01:09:56;100418.34;;;3.56;58.81
76586;BME280;65251;51.022;13.736;2023-04-03T01:10:28;100423.75;;;3.55;58.42
76586;BME280;65251;51.022;13.736;2023-04-03T01:11:00;100416.94;;;3.52;58.15
76586;BME280;65251;51.022;13.736;2023-04-03T01:11:31;100413.59;;;3.50;58.08
76586;BME280;65251;51.022;13.736;2023-04-03T01:12:17;100417.34;;;3.47;58.67
76586;BME280;65251;51.022;13.736;2023-04-03T01:12:50;100416.50;;;3.47;58.80
76586;BME280;65251;51.022;13.736;2023-04-03T01:13:24;100420.78;;;3.38;59.52
76586;BME280;65251;51.022;13.736;2023-04-03T01:13:55;100421.44;;;3.40;59.78
76586;BME280;65251;51.022;13.736;2023-04-03T01:14:27;100423.00;;;3.43;59.66
76586;BME280;65251;51.022;13.736;2023-04-03T01:15:00;100426.31;;;3.45;59.23
76586;BME280;65251;51.022;13.736;2023-04-03T01:15:31;100424.53;;;3.45;58.62
76586;BME280;65251;51.022;13.736;2023-04-03T01:16:06;100422.16;;;3.42;58.61
76586;BME280;65251;51.022;13.736;2023-04-03T01:16:36;100425.50;;;3.44;58.63
76586;BME280;65251;51.022;13.736;2023-04-03T01:17:27;100421.84;;;3.36;58.69
76586;BME280;65251;51.022;13.736;2023-04-03T01:17:59;100426.88;;;3.39;58.63
76586;BME280;65251;51.022;13.736;2023-04-03T01:18:32;100416.47;;;3.37;59.21
76586;BME280;65251;51.022;13.736;2023-04-03T01:19:10;100428.50;;;3.40;58.88
76586;BME280;65251;51.022;13.736;2023-04-03T01:19:48;100423.25;;;3.40;59.09
76586;BME280;65251;51.022;13.736;2023-04-03T01:20:46;100418.97;;;3.39;59.30
76586;BME280;65251;51.022;13.736;2023-04-03T01:21:55;100422.56;;;3.38;58.92
76586;BME280;65251;51.022;13.736;2023-04-03T01:22:38;100419.81;;;3.39;58.76
76586;BME280;65251;51.022;13.736;2023-04-03T01:23:25;100429.50;;;3.39;59.02
76586;BME280;65251;51.022;13.736;2023-04-03T01:24:16;100427.13;;;3.36;58.55
76586;BME280;65251;51.022;13.736;2023-04-03T01:24:53;100424.88;;;3.31;58.94
76586;BME280;65251;51.022;13.736;2023-04-03T01:25:24;100421.41;;;3.31;58.45
76586;BME280;65251;51.022;13.736;2023-04-03T01:25:57;100422.94;;;3.33;58.60
76586;BME280;65251;51.022;13.736;2023-04-03T01:26:29;100426.81;;;3.29;58.21
76586;BME280;65251;51.022;13.736;2023-04-03T01:27:03;100427.38;;;3.33;58.60
76586;BME280;65251;51.022;13.736;2023-04-03T01:27:36;100432.66;;;3.33;58.60
76586;BME280;65251;51.022;13.736;2023-04-03T01:28:10;100430.16;;;3.31;58.62
76586;BME280;65251;51.022;13.736;2023-04-03T01:28:41;100428.34;;;3.32;58.78
76586;BME280;65251;51.022;13.736;2023-04-03T01:29:12;100430.97;;;3.32;59.34
76586;BME280;65251;51.022;13.736;2023-04-03T01:29:45;100429.19;;;3.32;59.16
76586;BME280;65251;51.022;13.736;2023-04-03T01:30:19;100436.25;;;3.32;58.78
76586;BME280;65251;51.022;13.736;2023-04-03T01:30:57;100429.31;;;3.31;58.77
76586;BME280;65251;51.022;13.736;2023-04-03T01:31:44;100424.88;;;3.31;58.97
76586;BME280;65251;51.022;13.736;2023-04-03T01:32:15;100425.00;;;3.30;58.69
76586;BME280;65251;51.022;13.736;2023-04-03T01:32:47;100423.34;;;3.29;59.00
76586;BME280;65251;51.022;13.736;2023-04-03T01:33:18;100434.56;;;3.31;59.36
76586;BME280;65251;51.022;13.736;2023-04-03T01:33:49;100431.09;;;3.30;58.72
76586;BME280;65251;51.022;13.736;2023-04-03T01:34:21;100428.03;;;3.25;59.06
76586;BME280;65251;51.022;13.736;2023-04-03T01:34:52;100425.97;;;3.29;58.95
76586;BME280;65251;51.022;13.736;2023-04-03T01:35:23;100439.13;;;3.29;58.67
76586;BME280;65251;51.022;13.736;2023-04-03T01:35:54;100426.09;;;3.27;58.84
76586;BME280;65251;51.022;13.736;2023-04-03T01:36:28;100438.56;;;3.25;58.80
76586;BME280;65251;51.022;13.736;2023-04-03T01:37:00;100433.41;;;3.24;59.15
76586;BME280;65251;51.022;13.736;2023-04-03T01:37:31;100432.56;;;3.23;59.12
76586;BME280;65251;51.022;13.736;2023-04-03T01:38:02;100432.72;;;3.22;58.84
76586;BME280;65251;51.022;13.736;2023-04-03T01:38:33;100434.91;;;3.17;59.15
76586;BME280;65251;51.022;13.736;2023-04-03T01:39:04;100439.34;;;3.16;58.59
76586;BME280;65251;51.022;13.736;2023-04-03T01:39:36;100441.41;;;3.13;58.75
76586;BME280;65251;51.022;13.736;2023-04-03T01:40:08;100440.69;;;3.10;58.84
76586;BME280;65251;51.022;13.736;2023-04-03T01:40:38;100437.94;;;3.12;58.50
76586;BME280;65251;51.022;13.736;2023-04-03T01:41:10;100438.31;;;3.07;58.60
76586;BME280;65251;51.022;13.736;2023-04-03T01:41:41;100445.94;;;3.10;58.76
76586;BME280;65251;51.022;13.736;2023-04-03T01:42:12;100440.69;;;3.10;59.05
76586;BME280;65251;51.022;13.736;2023-04-03T01:42:43;100444.16;;;3.11;58.79
76586;BME280;65251;51.022;13.736;2023-04-03T01:43:14;100445.94;;;3.10;58.64
76586;BME280;65251;51.022;13.736;2023-04-03T01:43:45;100445.00;;;3.11;58.92
76586;BME280;65251;51.022;13.736;2023-04-03T01:44:17;100445.94;;;3.10;58.52
76586;BME280;65251;51.022;13.736;2023-04-03T01:44:47;100444.16;;;3.11;59.07
76586;BME280;65251;51.022;13.736;2023-04-03T01:45:18;100445.81;;;3.12;58.91
76586;BME280;65251;51.022;13.736;2023-04-03T01:45:49;100439.84;;;3.10;58.89
76586;BME280;65251;51.022;13.736;2023-04-03T01:46:22;100440.81;;;3.09;59.19
76586;BME280;65251;51.022;13.736;2023-04-03T01:46:54;100443.44;;;3.09;59.12
76586;BME280;65251;51.022;13.736;2023-04-03T01:47:25;100452.44;;;3.06;59.50
76586;BME280;65251;51.022;13.736;2023-04-03T01:47:57;100448.97;;;3.06;59.53
76586;BME280;65251;51.022;13.736;2023-04-03T01:48:28;100445.63;;;3.04;58.89
76586;BME280;65251;51.022;13.736;2023-04-03T01:48:59;100447.66;;;3.00;59.50
76586;BME280;65251;51.022;13.736;2023-04-03T01:49:31;100450.44;;;2.99;59.20
76586;BME280;65251;51.022;13.736;2023-04-03T01:50:02;100453.22;;;2.97;59.39
76586;BME280;65251;51.022;13.736;2023-04-03T01:50:33;100451.41;;;2.98;59.58
76586;BME280;65251;51.022;13.736;2023-04-03T01:51:04;100451.53;;;2.96;59.67
76586;BME280;65251;51.022;13.736;2023-04-03T01:51:35;100455.25;;;2.94;59.13
76586;BME280;65251;51.022;13.736;2023-04-03T01:52:06;100452.50;;;2.95;59.00
76586;BME280;65251;51.022;13.736;2023-04-03T01:52:38;100457.75;;;2.95;59.36
76586;BME280;65251;51.022;13.736;2023-04-03T01:53:09;100455.13;;;2.95;59.56
76586;BME280;65251;51.022;13.736;2023-04-03T01:53:39;100455.13;;;2.95;59.45
76586;BME280;65251;51.022;13.736;2023-04-03T01:54:10;100462.19;;;2.95;59.38
76586;BME280;65251;51.022;13.736;2023-04-03T01:54:42;100456.09;;;2.94;59.43
76586;BME280;65251;51.022;13.736;2023-04-03T01:55:13;100459.09;;;2.90;58.94
76586;BME280;65251;51.022;13.736;2023-04-03T01:55:43;100455.88;;;2.86;58.75
76586;BME280;65251;51.022;13.736;2023-04-03T01:56:14;100456.13;;;2.83;59.11
76586;BME280;65251;51.022;13.736;2023-04-03T01:56:46;100459.59;;;2.84;59.05
76586;BME280;65251;51.022;13.736;2023-04-03T01:57:17;100458.88;;;2.82;59.08
76586;BME280;65251;51.022;13.736;2023-04-03T01:57:47;100452.09;;;2.79;58.95
76586;BME280;65251;51.022;13.736;2023-04-03T01:58:19;100454.00;;;2.77;59.13
76586;BME280;65251;51.022;13.736;2023-04-03T01:58:50;100454.38;;;2.72;58.85
76586;BME280;65251;51.022;13.736;2023-04-03T01:59:21;100459.78;;;2.71;58.94
76586;BME280;65251;51.022;13.736;2023-04-03T01:59:52;100456.41;;;2.69;59.31
76586;BME280;65251;51.022;13.736;2023-04-03T02:00:23;100450.69;;;2.64;59.26
76586;BME280;65251;51.022;13.736;2023-04-03T02:00:54;100458.72;;;2.62;58.94
76586;BME280;65251;51.022;13.736;2023-04-03T02:01:26;100461.22;;;2.64;59.48
76586;BME280;65251;51.022;13.736;2023-04-03T02:01:58;100463.25;;;2.60;59.50
76586;BME280;65251;51.022;13.736;2023-04-03T02:02:29;100461.63;;;2.59;59.34
76586;BME280;65251;51.022;13.736;2023-04-03T02:03:00;100466.88;;;2.59;59.37
76586;BME280;65251;51.022;13.736;2023-04-03T02:03:31;100465.88;;;2.60;59.24
76586;BME280;65251;51.022;13.736;2023-04-03T02:04:02;100467.72;;;2.60;59.25
76586;BME280;65251;51.022;13.736;2023-04-03T02:04:34;100466.03;;;2.59;59.05
76586;BME280;65251;51.022;13.736;2023-04-03T02:05:06;100466.03;;;2.59;59.42
76586;BME280;65251;51.022;13.736;2023-04-03T02:05:37;100465.09;;;2.60;59.70
76586;BME280;65251;51.022;13.736;2023-04-03T02:06:08;100462.56;;;2.58;59.50
76586;BME280;65251;51.022;13.736;2023-04-03T02:06:40;100466.88;;;2.59;59.96
76586;BME280;65251;51.022;13.736;2023-04-03T02:07:10;100466.88;;;2.59;59.58
76586;BME280;65251;51.022;13.736;2023-04-03T02:07:41;100470.34;;;2.60;59.74
76586;BME280;65251;51.022;13.736;2023-04-03T02:08:12;100468.66;;;2.59;59.52
76586;BME280;65251;51.022;13.736;2023-04-03T02:08:44;100467.13;;;2.56;59.82
76586;BME280;65251;51.022;13.736;2023-04-03T02:09:15;100466.41;;;2.54;59.44
76586;BME280;65251;51.022;13.736;2023-04-03T02:09:47;100463.91;;;2.53;59.41
76586;BME280;65251;51.022;13.736;2023-04-03T02:10:17;100471.19;;;2.49;59.38
76586;BME280;65251;51.022;13.736;2023-04-03T02:10:49;100458.88;;;2.50;59.23
76586;BME280;65251;51.022;13.736;2023-04-03T02:11:20;100467.59;;;2.50;59.49
76586;BME280;65251;51.022;13.736;2023-04-03T02:11:52;100468.69;;;2.48;59.09
76586;BME280;65251;51.022;13.736;2023-04-03T02:12:23;100458.41;;;2.45;59.56
76586;BME280;65251;51.022;13.736;2023-04-03T02:12:53;100466.53;;;2.41;59.18
76586;BME280;65251;51.022;13.736;2023-04-03T02:13:25;100464.88;;;2.40;59.23
76586;BME280;65251;51.022;13.736;2023-04-03T02:13:56;100461.56;;;2.38;59.36
76586;BME280;65251;51.022;13.736;2023-04-03T02:14:27;100461.78;;;2.35;58.77
76586;BME280;65251;51.022;13.736;2023-04-03T02:14:59;100473.88;;;2.38;59.28
76586;BME280;65251;51.022;13.736;2023-04-03T02:15:29;100471.34;;;2.36;59.17
76586;BME280;65251;51.022;13.736;2023-04-03T02:16:06;100467.88;;;2.36;59.14
76586;BME280;65251;51.022;13.736;2023-04-03T02:16:38;100466.34;;;2.33;59.43
76586;BME280;65251;51.022;13.736;2023-04-03T02:17:10;100475.19;;;2.32;59.53
76586;BME280;65251;51.022;13.736;2023-04-03T02:17:41;100475.41;;;2.29;60.11
76586;BME280;65251;51.022;13.736;2023-04-03T02:18:13;100473.63;;;2.30;60.08
76586;BME280;65251;51.022;13.736;2023-04-03T02:18:44;100472.06;;;2.27;59.67
76586;BME280;65251;51.022;13.736;2023-04-03T02:19:15;100477.22;;;2.29;59.88
76586;BME280;65251;51.022;13.736;2023-04-03T02:19:47;100473.03;;;2.26;60.01
76586;BME280;65251;51.022;13.736;2023-04-03T02:20:18;100471.00;;;2.30;59.74
76586;BME280;65251;51.022;13.736;2023-04-03T02:20:49;100476.38;;;2.28;59.81
76586;BME280;65251;51.022;13.736;2023-04-03T02:21:20;100475.53;;;2.28;59.54
76586;BME280;65251;51.022;13.736;2023-04-03T02:21:51;100477.44;;;2.26;59.57
76586;BME280;65251;51.022;13.736;2023-04-03T02:22:22;100475.91;;;2.23;59.85
76586;BME280;65251;51.022;13.736;2023-04-03T02:22:53;100479.38;;;2.24;60.06
76586;BME280;65251;51.022;13.736;2023-04-03T02:23:24;100474.22;;;2.22;60.21
76586;BME280;65251;51.022;13.736;2023-04-03T02:23:55;100471.59;;;2.22;60.51
76586;BME280;65251;51.022;13.736;2023-04-03T02:24:26;100476.13;;;2.20;60.44
76586;BME280;65251;51.022;13.736;2023-04-03T02:24:59;100477.97;;;2.20;60.23
76586;BME280;65251;51.022;13.736;2023-04-03T02:25:31;100475.56;;;2.17;60.24
76586;BME280;65251;51.022;13.736;2023-04-03T02:26:04;100472.22;;;2.15;60.01
76586;BME280;65251;51.022;13.736;2023-04-03T02:26:36;100475.56;;;2.17;60.04
76586;BME280;65251;51.022;13.736;2023-04-03T02:27:07;100477.47;;;2.15;60.05
76586;BME280;65251;51.022;13.736;2023-04-03T02:27:38;100472.34;;;2.13;59.68
76586;BME280;65251;51.022;13.736;2023-04-03T02:28:10;100472.59;;;2.10;59.92
76586;BME280;65251;51.022;13.736;2023-04-03T02:28:40;100471.75;;;2.10;59.86
76586;BME280;65251;51.022;13.736;2023-04-03T02:29:11;100479.16;;;2.04;60.09
76586;BME280;65251;51.022;13.736;2023-04-03T02:29:43;100485.13;;;2.06;60.00
76586;BME280;65251;51.022;13.736;2023-04-03T02:30:14;100479.97;;;2.05;60.03
76586;BME280;65251;51.022;13.736;2023-04-03T02:30:46;100483.44;;;2.05;60.17
76586;BME280;65251;51.022;13.736;2023-04-03T02:31:18;100478.06;;;2.07;59.96
76586;BME280;65251;51.022;13.736;2023-04-03T02:31:49;100483.44;;;2.05;60.01
76586;BME280;65251;51.022;13.736;2023-04-03T02:32:21;100481.66;;;2.06;59.98
76586;BME280;65251;51.022;13.736;2023-04-03T02:32:52;100467.91;;;2.02;60.30
76586;BME280;65251;51.022;13.736;2023-04-03T02:33:24;100483.22;;;2.08;59.98
76586;BME280;65251;51.022;13.736;2023-04-03T02:33:54;100480.59;;;2.08;59.97
76586;BME280;65251;51.022;13.736;2023-04-03T02:34:25;100482.38;;;2.08;60.19
76586;BME280;65251;51.022;13.736;2023-04-03T02:34:57;100482.38;;;2.08;60.09
76586;BME280;65251;51.022;13.736;2023-04-03T02:35:28;100486.91;;;2.06;60.18
76586;BME280;65251;51.022;13.736;2023-04-03T02:35:59;100484.41;;;2.04;60.05
76586;BME280;65251;51.022;13.736;2023-04-03T02:36:31;100480.22;;;2.02;59.82
76586;BME280;65251;51.022;13.736;2023-04-03T02:37:01;100485.59;;;2.00;59.77
76586;BME280;65251;51.022;13.736;2023-04-03T02:37:33;100482.13;;;2.00;60.12
76586;BME280;65251;51.022;13.736;2023-04-03T02:38:05;100468.66;;;1.93;60.08
76586;BME280;65251;51.022;13.736;2023-04-03T02:38:36;100479.66;;;1.98;60.07
76586;BME280;65251;51.022;13.736;2023-04-03T02:39:07;100483.22;;;1.97;60.31
76586;BME280;65251;51.022;13.736;2023-04-03T02:39:39;100487.66;;;1.97;60.35
76586;BME280;65251;51.022;13.736;2023-04-03T02:40:10;100484.19;;;1.96;60.49
76586;BME280;65251;51.022;13.736;2023-04-03T02:40:41;100480.50;;;1.99;60.65
76586;BME280;65251;51.022;13.736;2023-04-03T02:41:14;100492.91;;;1.97;60.73
76586;BME280;65251;51.022;13.736;2023-04-03T02:41:45;100480.72;;;1.96;60.74
76586;BME280;65251;51.022;13.736;2023-04-03T02:42:15;100483.34;;;1.96;60.88
76586;BME280;65251;51.022;13.736;2023-04-03T02:42:47;100479.03;;;1.95;60.69
76586;BME280;65251;51.022;13.736;2023-04-03T02:43:18;100485.25;;;1.94;60.66
76586;BME280;65251;51.022;13.736;2023-04-03T02:43:49;100486.31;;;1.91;60.45
76586;BME280;65251;51.022;13.736;2023-04-03T02:44:21;100486.31;;;1.91;60.49
76586;BME280;65251;51.022;13.736;2023-04-03T02:44:51;100491.81;;;1.88;61.22
76586;BME280;65251;51.022;13.736;2023-04-03T02:45:22;100488.47;;;1.86;60.90
76586;BME280;65251;51.022;13.736;2023-04-03T02:45:54;100486.06;;;1.83;60.89
76586;BME280;65251;51.022;13.736;2023-04-03T02:46:25;100490.59;;;1.81;60.93
76586;BME280;65251;51.022;13.736;2023-04-03T02:46:55;100487.88;;;1.83;60.88
76586;BME280;65251;51.022;13.736;2023-04-03T02:47:28;100490.75;;;1.80;60.73
76586;BME280;65251;51.022;13.736;2023-04-03T02:47:59;100481.31;;;1.77;61.00
76586;BME280;65251;51.022;13.736;2023-04-03T02:48:30;100485.84;;;1.75;61.04
76586;BME280;65251;51.022;13.736;2023-04-03T02:49:03;100489.56;;;1.72;61.19
76586;BME280;65251;51.022;13.736;2023-04-03T02:49:34;100492.19;;;1.72;60.99
76586;BME280;65251;51.022;13.736;2023-04-03T02:50:05;100489.78;;;1.69;61.43